createdAt,value
2018-09-12T14:52:39.349Z,49.19
2018-09-12T14:53:39.145Z,47.05
2018-09-12T14:55:32.008Z,50.92
2018-09-12T14:56:31.887Z,52.28
2018-09-12T14:58:24.748Z,46.83
2018-09-12T14:59:24.637Z,47.22
2018-09-12T15:01:17.946Z,50.24
2018-09-12T15:02:17.888Z,49.37
2018-09-12T15:03:17.864Z,50.92
2018-09-12T15:04:17.797Z,51.48
2018-09-12T15:05:17.754Z,51.09
2018-09-12T15:06:17.710Z,50.80
2018-09-12T15:07:17.666Z,52.84
2018-09-12T15:08:17.619Z,51.87
2018-09-12T15:09:17.573Z,48.85
2018-09-12T15:10:17.559Z,50.12
2018-09-12T15:11:17.480Z,53.33
2018-09-12T15:12:17.436Z,51.87
2018-09-12T15:13:17.389Z,51.09
2018-09-12T15:14:17.348Z,52.16
2018-09-12T15:15:17.300Z,50.02
2018-09-12T15:16:17.256Z,53.81
2018-09-12T15:17:17.210Z,50.99
2018-09-12T15:18:17.167Z,52.16
2018-09-12T15:19:17.125Z,49.73
2018-09-12T15:20:17.078Z,53.62
2018-09-12T15:21:17.037Z,53.72
2018-09-12T15:22:17.002Z,50.90
2018-09-12T15:23:16.946Z,51.97
2018-09-12T15:24:16.903Z,49.92
2018-09-12T15:25:16.858Z,50.80
2018-09-12T15:26:17.531Z,48.95
2018-09-12T15:27:16.775Z,50.21
2018-09-12T15:28:16.727Z,50.02
2018-09-12T15:29:16.686Z,51.19
2018-09-12T15:30:16.645Z,51.67
2018-09-12T15:31:16.601Z,48.95
2018-09-12T15:32:16.599Z,50.12
2018-09-12T15:33:16.507Z,49.92
2018-09-12T15:34:16.477Z,48.46
2018-09-12T15:35:16.422Z,49.83
2018-09-12T15:36:16.382Z,50.51
2018-09-12T15:37:16.344Z,48.27
2018-09-12T15:38:16.292Z,49.34
2018-09-12T15:39:16.247Z,52.55
2018-09-12T15:40:16.201Z,53.14
2018-09-12T15:41:16.214Z,53.04
2018-09-12T15:42:16.116Z,50.19
2018-09-12T15:43:16.070Z,50.97
2018-09-12T15:44:16.031Z,52.62
2018-09-12T15:45:15.983Z,53.01
2018-09-12T15:46:15.941Z,50.68
2018-09-12T15:47:16.035Z,50.97
2018-09-12T15:48:15.854Z,51.07
2018-09-12T15:49:15.809Z,50.78
2018-09-12T15:50:15.767Z,50.87
2018-09-12T15:51:15.729Z,52.23
2018-09-12T15:52:15.678Z,52.11
2018-09-12T15:53:15.638Z,50.65
2018-09-12T15:54:15.590Z,51.53
2018-09-12T15:55:15.548Z,53.77
2018-09-12T15:56:15.506Z,54.93
2018-09-12T15:57:15.464Z,54.64
2018-09-12T15:58:15.466Z,53.67
2018-09-12T15:59:15.373Z,53.57
2018-09-12T16:00:15.337Z,52.31
2018-09-12T16:01:15.284Z,51.11
2018-09-12T16:02:15.238Z,52.59
2018-09-12T16:03:15.197Z,52.76
2018-09-12T16:04:15.160Z,52.09
2018-09-12T16:05:15.111Z,53.74
2018-09-12T16:06:15.064Z,51.82
2018-09-12T16:07:15.021Z,53.16
2018-09-12T16:08:14.977Z,53.64
2018-09-12T16:09:14.934Z,53.64
2018-09-12T16:10:14.966Z,54.22
2018-09-12T16:11:14.844Z,54.22
2018-09-12T16:12:14.807Z,53.06
2018-09-12T16:13:14.756Z,52.28
2018-09-12T16:14:14.713Z,51.79
2018-09-12T16:15:14.736Z,50.82
2018-09-12T16:16:14.627Z,52.09
2018-09-12T16:17:14.581Z,51.79
2018-09-12T16:18:14.538Z,53.45
2018-09-12T16:19:14.494Z,53.77
2018-09-12T16:20:14.452Z,54.03
2018-09-12T16:21:14.405Z,54.03
2018-09-12T16:22:14.361Z,53.35
2018-09-12T16:23:14.430Z,52.37
2018-09-12T16:24:14.275Z,52.19
2018-09-12T16:25:14.230Z,53.54
2018-09-12T16:26:14.185Z,53.35
2018-09-12T16:27:14.144Z,53.35
2018-09-12T16:28:14.098Z,53.52
2018-09-12T16:29:14.129Z,53.35
2018-09-12T16:30:14.009Z,53.42
2018-09-12T16:31:13.966Z,53.74
2018-09-12T16:32:13.944Z,53.81
2018-09-12T16:33:13.877Z,54.00
2018-09-12T16:34:13.837Z,54.20
2018-09-12T16:35:13.789Z,54.39
2018-09-12T16:36:13.745Z,54.97
2018-09-12T16:37:13.742Z,54.78
2018-09-12T16:38:13.656Z,54.58
2018-09-12T16:39:13.616Z,54.97
2018-09-12T16:40:13.617Z,55.46
2018-09-12T16:41:13.527Z,56.52
2018-09-12T16:42:13.479Z,56.24
2018-09-12T16:43:13.438Z,55.53
2018-09-12T16:44:13.464Z,56.89
2018-09-12T16:45:13.349Z,57.08
2018-09-12T16:46:13.303Z,58.05
2018-09-12T16:47:13.262Z,56.79
2018-09-12T16:48:13.215Z,57.37
2018-09-12T16:49:13.170Z,58.44
2018-09-12T16:50:13.124Z,59.90
2018-09-12T16:51:13.093Z,59.77
2018-09-12T16:52:13.037Z,60.06
2018-09-12T16:53:27.552Z,60.74
2018-09-12T16:54:12.948Z,61.13
2018-09-12T16:55:12.912Z,61.04
2018-09-12T16:56:12.893Z,60.74
2018-09-12T16:57:12.820Z,60.84
2018-09-12T16:58:12.774Z,62.01
2018-09-12T16:59:12.729Z,62.01
2018-09-12T17:00:12.692Z,62.46
2018-09-12T17:01:12.637Z,64.20
2018-09-12T17:02:12.595Z,63.91
2018-09-12T17:03:12.548Z,65.66
2018-09-12T17:04:12.510Z,64.30
2018-09-12T17:05:12.461Z,65.08
2018-09-12T17:06:12.414Z,65.08
2018-09-12T17:07:12.374Z,65.66
2018-09-12T17:08:12.326Z,66.63
2018-09-12T17:09:12.280Z,66.14
2018-09-12T17:10:12.237Z,67.50
2018-09-12T17:11:12.197Z,66.72
2018-09-12T17:12:12.160Z,67.18
2018-09-12T17:13:12.103Z,67.76
2018-09-12T17:14:12.116Z,67.76
2018-09-12T17:15:12.015Z,67.37
2018-09-12T17:16:11.972Z,66.30
2018-09-12T17:17:11.931Z,66.79
2018-09-12T17:18:11.888Z,64.47
2018-09-12T17:19:11.834Z,63.59
2018-09-12T17:20:11.819Z,64.47
2018-09-12T17:21:11.746Z,63.78
2018-09-12T17:22:11.706Z,62.91
2018-09-12T17:23:11.655Z,63.98
2018-09-12T17:24:11.614Z,65.24
2018-09-12T17:25:11.566Z,63.69
2018-09-12T17:26:11.526Z,65.43
2018-09-12T17:27:11.477Z,66.99
2018-09-12T17:28:11.433Z,67.37
2018-09-12T17:29:11.388Z,65.59
2018-09-12T17:30:11.351Z,64.14
2018-09-12T17:31:11.298Z,63.07
2018-09-12T17:32:11.254Z,64.43
2018-09-12T17:33:11.208Z,65.01
2018-09-12T17:34:11.163Z,65.98
2018-09-12T17:35:11.119Z,65.11
2018-09-12T17:36:11.074Z,64.43
2018-09-12T17:37:11.030Z,65.01
2018-09-12T17:38:10.983Z,66.08
2018-09-12T17:39:10.938Z,65.59
2018-09-12T17:40:10.912Z,65.59
2018-09-12T17:41:10.848Z,64.20
2018-09-12T17:42:10.803Z,64.11
2018-09-12T17:43:10.761Z,64.50
2018-09-12T17:44:10.713Z,66.34
2018-09-12T17:45:10.669Z,67.79
2018-09-12T17:46:10.625Z,66.63
2018-09-12T17:47:10.580Z,67.40
2018-09-12T17:48:10.537Z,68.66
2018-09-12T17:49:10.492Z,67.37
2018-09-12T17:50:10.446Z,66.78
2018-09-12T17:51:10.403Z,66.30
2018-09-12T17:52:10.355Z,68.73
2018-09-12T17:53:10.308Z,69.66
2018-09-12T17:54:10.267Z,70.08
2018-09-12T17:55:10.218Z,69.66
2018-09-12T17:56:10.369Z,67.91
2018-09-12T17:57:10.137Z,68.01
2018-09-12T17:58:10.084Z,69.75
2018-09-12T17:59:10.037Z,71.01
2018-09-12T18:00:09.997Z,71.30
2018-09-12T18:01:09.946Z,70.98
2018-09-12T18:02:09.903Z,70.88
2018-09-12T18:03:09.857Z,69.92
2018-09-12T18:04:09.813Z,71.36
2018-09-12T18:05:09.766Z,72.42
2018-09-12T18:06:09.730Z,72.33
2018-09-12T18:07:09.676Z,72.30
2018-09-12T18:08:09.631Z,71.62
2018-09-12T18:09:09.590Z,72.68
2018-09-12T18:10:09.563Z,73.65
2018-09-12T18:11:09.554Z,74.81
2018-09-12T18:12:09.451Z,74.13
2018-09-12T18:13:09.403Z,73.55
2018-09-12T18:14:09.357Z,74.04
2018-09-12T18:15:09.317Z,73.80
2018-09-12T18:16:09.266Z,73.71
2018-09-12T18:17:09.220Z,73.71
2018-09-12T18:18:09.177Z,73.61
2018-09-12T18:19:09.131Z,73.71
2018-09-12T18:20:09.084Z,75.26
2018-09-12T18:21:09.041Z,75.64
2018-09-12T18:22:08.999Z,75.16
2018-09-12T18:23:08.947Z,75.35
2018-09-12T18:24:08.931Z,76.80
2018-09-12T18:25:08.921Z,77.19
2018-09-12T18:26:08.817Z,76.95
2018-09-12T18:27:08.764Z,76.95
2018-09-12T18:28:08.725Z,78.11
2018-09-12T18:29:08.677Z,78.59
2018-09-12T18:30:08.629Z,78.11
2018-09-12T18:31:08.581Z,77.63
2018-09-12T18:32:08.535Z,75.79
2018-09-12T18:33:08.498Z,77.05
2018-09-12T18:34:08.443Z,77.63
2018-09-12T18:35:08.398Z,77.50
2018-09-12T18:36:08.401Z,77.30
2018-09-12T18:37:09.079Z,76.53
2018-09-12T18:38:08.317Z,77.98
2018-09-12T18:39:08.216Z,79.43
2018-09-12T18:40:08.169Z,79.91
2018-09-12T18:41:08.129Z,79.91
2018-09-12T18:42:08.075Z,80.00
2018-09-12T18:43:08.147Z,79.91
2018-09-12T18:44:07.984Z,80.30
2018-09-12T18:45:07.957Z,80.39
2018-09-12T18:46:07.892Z,80.87
2018-09-12T18:47:07.846Z,80.39
2018-09-12T18:48:07.799Z,81.07
2018-09-12T18:49:07.771Z,81.65
2018-09-12T18:50:07.706Z,81.32
2018-09-12T18:51:08.580Z,82.48
2018-09-12T18:52:07.617Z,81.80
2018-09-12T18:53:07.568Z,81.32
2018-09-12T18:54:07.640Z,80.26
2018-09-12T18:55:07.477Z,81.22
2018-09-12T18:56:07.433Z,81.51
2018-09-12T18:57:07.383Z,81.80
2018-09-12T18:58:07.339Z,83.44
2018-09-12T18:59:07.290Z,83.69
2018-09-12T19:00:07.249Z,83.40
2018-09-12T19:01:07.197Z,83.88
2018-09-12T19:02:07.152Z,82.53
2018-09-12T19:03:07.105Z,82.14
2018-09-12T19:04:07.059Z,81.57
2018-09-12T19:05:07.012Z,81.85
2018-09-12T19:06:06.965Z,81.27
2018-09-12T19:07:07.124Z,82.53
2018-09-12T19:08:06.873Z,83.40
2018-09-12T19:09:06.829Z,82.82
2018-09-12T19:10:06.780Z,82.34
2018-09-12T19:11:06.734Z,81.37
2018-09-12T19:12:06.688Z,81.57
2018-09-12T19:13:06.685Z,81.85
2018-09-12T19:14:06.596Z,82.34
2018-09-12T19:15:06.556Z,82.53
2018-09-12T19:16:06.503Z,82.72
2018-09-12T19:17:06.454Z,83.78
2018-09-12T19:18:06.447Z,83.40
2018-09-12T19:19:06.365Z,83.20
2018-09-12T19:20:06.318Z,83.69
2018-09-12T19:21:06.292Z,83.11
2018-09-12T19:22:06.226Z,83.50
2018-09-12T19:23:06.177Z,83.45
2018-09-12T19:24:06.133Z,83.20
2018-09-12T19:25:06.082Z,83.20
2018-09-12T19:26:06.039Z,83.36
2018-09-12T19:27:05.990Z,83.26
2018-09-12T19:28:05.958Z,83.26
2018-09-12T19:29:05.895Z,82.49
2018-09-12T19:30:05.874Z,82.59
2018-09-12T19:31:05.801Z,84.12
2018-09-12T19:32:05.755Z,84.80
2018-09-12T19:33:05.708Z,84.70
2018-09-12T19:34:05.662Z,84.99
2018-09-12T19:35:05.631Z,83.84
2018-09-12T19:36:05.573Z,84.80
2018-09-12T19:37:05.522Z,85.47
2018-09-12T19:38:05.479Z,85.57
2018-09-12T19:39:05.428Z,85.38
2018-09-12T19:40:05.382Z,84.66
2018-09-12T19:41:05.334Z,84.61
2018-09-12T19:42:05.411Z,84.56
2018-09-12T19:43:05.239Z,84.56
2018-09-12T19:44:05.194Z,84.66
2018-09-12T19:45:05.146Z,84.18
2018-09-12T19:46:05.103Z,84.38
2018-09-12T19:47:05.052Z,85.38
2018-09-12T19:48:05.036Z,85.14
2018-09-12T19:49:04.958Z,85.53
2018-09-12T19:50:04.912Z,84.80
2018-09-12T19:51:04.867Z,85.24
2018-09-12T19:52:04.819Z,84.95
2018-09-12T19:53:04.774Z,84.66
2018-09-12T19:54:04.727Z,84.56
2018-09-12T19:55:04.686Z,85.82
2018-09-12T19:56:04.635Z,86.11
2018-09-12T19:57:04.583Z,86.30
2018-09-12T19:58:04.540Z,85.78
2018-09-12T19:59:04.489Z,86.49
2018-09-12T20:00:04.444Z,86.69
2018-09-12T20:01:04.396Z,86.98
2018-09-12T20:02:04.348Z,86.74
2018-09-12T20:03:04.300Z,86.40
2018-09-12T20:04:04.260Z,87.17
2018-09-12T20:05:04.207Z,87.60
2018-09-12T20:06:04.162Z,86.88
2018-09-12T20:07:04.117Z,87.26
2018-09-12T20:08:04.068Z,87.03
2018-09-12T20:09:04.017Z,87.65
2018-09-12T20:10:03.971Z,86.98
2018-09-12T20:11:03.923Z,86.59
2018-09-12T20:12:03.877Z,86.69
2018-09-12T20:13:03.832Z,87.26
2018-09-12T20:14:03.782Z,86.78
2018-09-12T20:15:03.737Z,86.83
2018-09-12T20:16:03.705Z,87.17
2018-09-12T20:17:03.641Z,87.70
2018-09-12T20:18:03.619Z,87.26
2018-09-12T20:19:03.545Z,86.59
2018-09-12T20:20:03.505Z,86.49
2018-09-12T20:21:03.477Z,86.69
2018-09-12T20:22:03.413Z,86.93
2018-09-12T20:23:03.357Z,87.41
2018-09-12T20:24:03.649Z,87.07
2018-09-12T20:25:03.261Z,87.84
2018-09-12T20:26:03.225Z,87.03
2018-09-12T20:27:03.173Z,87.22
2018-09-12T20:28:03.126Z,86.65
2018-09-12T20:29:03.073Z,86.45
2018-09-12T20:30:03.130Z,87.12
2018-09-12T20:31:02.983Z,87.32
2018-09-12T20:32:02.939Z,86.74
2018-09-12T20:33:02.909Z,87.80
2018-09-12T20:34:02.837Z,87.51
2018-09-12T20:35:02.794Z,88.28
2018-09-12T20:36:02.745Z,87.80
2018-09-12T20:37:02.695Z,87.26
2018-09-12T20:38:02.651Z,87.65
2018-09-12T20:39:02.599Z,86.74
2018-09-12T20:40:02.568Z,86.21
2018-09-12T20:41:02.507Z,86.65
2018-09-12T20:42:02.456Z,87.22
2018-09-12T20:43:02.429Z,85.78
2018-09-12T20:44:02.376Z,86.74
2018-09-12T20:45:02.343Z,87.03
2018-09-12T20:46:02.270Z,87.80
2018-09-12T20:47:02.234Z,87.65
2018-09-12T20:48:02.179Z,86.69
2018-09-12T20:49:02.125Z,87.51
2018-09-12T20:50:02.095Z,87.65
2018-09-12T20:51:02.032Z,88.32
2018-09-12T20:52:01.985Z,88.04
2018-09-12T20:53:01.941Z,87.74
2018-09-12T20:54:06.610Z,88.81
2018-09-12T20:55:01.841Z,88.23
2018-09-12T20:56:01.795Z,89.15
2018-09-12T20:57:01.752Z,89.39
2018-09-12T20:58:01.697Z,89.29
2018-09-12T20:59:01.653Z,89.09
2018-09-12T21:00:01.609Z,87.94
2018-09-12T21:01:01.561Z,85.91
2018-09-12T21:02:01.509Z,86.11
2018-09-12T21:03:01.490Z,84.47
2018-09-12T21:04:01.416Z,80.18
2018-09-12T21:05:01.366Z,79.79
2018-09-12T21:06:01.320Z,79.74
2018-09-12T21:07:01.270Z,78.38
2018-09-12T21:08:01.226Z,78.29
2018-09-12T21:09:01.175Z,78.13
2018-09-12T21:10:01.127Z,78.52
2018-09-12T21:11:01.116Z,78.36
2018-09-12T21:12:01.034Z,78.75
2018-09-12T21:13:01.008Z,78.66
2018-09-12T21:14:00.938Z,79.24
2018-09-12T21:15:00.890Z,79.33
2018-09-12T21:16:00.844Z,78.79
2018-09-12T21:17:00.794Z,79.47
2018-09-12T21:18:00.764Z,79.47
2018-09-12T21:19:00.745Z,80.05
2018-09-12T21:20:00.658Z,80.05
2018-09-12T21:21:00.606Z,79.75
2018-09-12T21:22:00.560Z,80.91
2018-09-12T21:23:00.515Z,81.11
2018-09-12T21:24:00.464Z,82.07
2018-09-12T21:25:00.419Z,82.26
2018-09-12T21:26:00.368Z,84.20
2018-09-12T21:27:00.326Z,84.20
2018-09-12T21:28:00.276Z,84.48
2018-09-12T21:29:00.229Z,85.26
2018-09-12T21:30:00.180Z,86.22
2018-09-12T21:31:00.139Z,87.44
2018-09-12T21:32:00.087Z,88.25
2018-09-12T21:33:00.048Z,89.17
2018-09-12T21:34:00.263Z,89.95
2018-09-12T21:35:00.255Z,89.75
2018-09-12T21:35:59.921Z,90.33
2018-09-12T21:36:59.949Z,90.72
2018-09-12T21:37:59.808Z,91.97
2018-09-12T21:38:59.782Z,93.28
2018-09-12T21:39:59.709Z,94.34
2018-09-12T21:40:59.660Z,93.95
2018-09-12T21:41:59.626Z,95.11
2018-09-12T21:42:59.567Z,95.88
2018-09-12T21:43:59.519Z,95.59
2018-09-12T21:44:59.478Z,96.36
2018-09-12T21:45:59.425Z,96.94
2018-09-12T21:46:59.377Z,98.00
2018-09-12T21:47:59.334Z,97.47
2018-09-12T21:48:59.283Z,99.99
2018-09-12T21:49:59.245Z,99.99
2018-09-12T21:50:59.189Z,99.99
2018-09-12T21:51:59.141Z,99.99
2018-09-12T21:52:59.094Z,99.99
2018-09-12T21:53:59.060Z,99.99
2018-09-12T21:54:58.999Z,99.98
2018-09-12T21:55:58.952Z,96.61
2018-09-12T21:56:58.905Z,98.25
2018-09-12T21:57:58.857Z,99.21
2018-09-12T21:58:58.810Z,99.98
2018-09-12T21:59:58.762Z,97.28
2018-09-12T22:00:58.717Z,99.79
2018-09-12T22:01:58.668Z,99.99
2018-09-12T22:02:58.624Z,99.99
2018-09-12T22:03:58.573Z,99.99
2018-09-12T22:04:58.526Z,97.04
2018-09-12T22:05:58.480Z,95.59
2018-09-12T22:06:58.432Z,96.89
2018-09-12T22:07:58.452Z,96.75
2018-09-12T22:08:58.335Z,96.94
2018-09-12T22:09:58.288Z,97.86
2018-09-12T22:10:58.243Z,99.99
2018-09-12T22:11:58.195Z,99.99
2018-09-12T22:12:58.147Z,99.99
2018-09-12T22:13:58.099Z,99.99
2018-09-12T22:14:58.052Z,99.99
2018-09-12T22:15:58.005Z,99.99
2018-09-12T22:16:57.956Z,99.99
2018-09-12T22:17:57.909Z,99.99
2018-09-12T22:18:57.865Z,99.99
2018-09-12T22:19:57.814Z,99.99
2018-09-12T22:20:57.766Z,99.99
2018-09-12T22:21:57.722Z,99.99
2018-09-12T22:22:57.674Z,99.99
2018-09-12T22:23:57.625Z,99.99
2018-09-12T22:24:57.575Z,99.99
2018-09-12T22:25:57.529Z,99.99
2018-09-12T22:26:57.480Z,99.99
2018-09-12T22:27:57.437Z,99.99
2018-09-12T22:28:57.388Z,99.99
2018-09-12T22:29:57.340Z,99.99
2018-09-12T22:30:57.290Z,99.99
2018-09-12T22:31:57.245Z,99.99
2018-09-12T22:32:57.195Z,99.99
2018-09-12T22:33:57.150Z,99.99
2018-09-12T22:34:57.101Z,99.99
2018-09-12T22:35:57.056Z,99.99
2018-09-12T22:36:57.008Z,99.99
2018-09-12T22:37:56.961Z,99.99
2018-09-12T22:38:56.909Z,99.99
2018-09-12T22:39:56.902Z,99.99
2018-09-12T22:40:56.814Z,99.99
2018-09-12T22:41:56.767Z,99.99
2018-09-12T22:42:56.722Z,99.99
2018-09-12T22:43:56.673Z,99.99
2018-09-12T22:44:56.625Z,99.99
2018-09-12T22:45:56.578Z,99.99
2018-09-12T22:46:56.528Z,99.99
2018-09-12T22:47:56.481Z,99.99
2018-09-12T22:48:56.433Z,99.99
2018-09-12T22:49:56.385Z,99.99
2018-09-12T22:50:56.339Z,99.99
2018-09-12T22:51:56.291Z,99.99
2018-09-12T22:52:56.242Z,99.99
2018-09-12T22:53:56.196Z,99.99
2018-09-12T22:54:56.146Z,99.99
